ROMMA est une association bénévole à but non lucratif. Votre soutien est indispensable : ADHERER à ROMMA ou FAIRE un DON

Briord - (01, Ain)

Bugey (281 m)   Longitude: 05° 29' 13" E   Latitude: 45° 46' 37" N Station partenaire n°15
 

Détail journalier du     <<     >>

Température Precipitation Humidité Pression Vent Dir Rafale Dir. rafale Ensol.
Heure (°C) (mm) (%) (hPa) (km/h) (km/h) (min)
01:00 7.6070101503S0
02:00 7.3069101400---0
03:00 7.3067101403ENE0
04:00 6.8068101403ENE0
05:00 6.2070101305SSE0
06:00 5.2074101303SSE0
07:00 5.0074101300---0
08:00 4.7078101402SE0
09:00 7.6074101302SSE20
10:00 14.3055101305SE60
11:00 17.303910134SE13SE60
12:00 16.504410133O13SSE35
13:00 18.204010122SSE19SSE20
14:00 19.304210115SSE23ONO50
15:00 18.203910119O29O20
16:00 18.403110105SE21OSO0
17:00 17.303010104SSE23S0
18:00 17.502610105SSE23S0
19:00 16.203010107O32OSO0
20:00 14.903910102S24O0
21:00 14.104210102SSE18O0
22:00 13.604710102SSE21ONO0
23:00 9.80.4821011018OSO0
minuit 9.80.67410102E26NNO0

Graphique du 02-04-2019

 

Serveur OMMA